Du har inga inställningar för hoppväder.nu

Hoppväder.nu

Senast uppdaterat 09:35

UTC-tid

2022-08-15 kl. 07:35


Sol och måne

Solen går upp 5:09 och går ner 21:40 (beräknade cirkatider)
Nästa fullmåne blir om 26 dagar (2022-09-10)

METAR

ESSA (Arlanda, Stockholm)
(15 minuter sedan)
ESSA 150720Z 09005KT 060V120 CAVOK 22/16 Q1014 NOSIG=



ESSD (Borlänge)
(15 minuter sedan)
ESSD 150720Z 09005KT CAVOK 19/15 Q1014=



EFMA (Mariehamn)
(15 minuter sedan)
EFMA 150720Z AUTO 12007KT CAVOK 24/19 Q1015=



ESOW (Västerås)
(15 minuter sedan)
ESOW 150720Z 07004KT 030V110 CAVOK 23/17 Q1013=






TAF

ESSA (Arlanda, Stockholm)
(125 minuter sedan)
ESSA 150530Z 1506/1606 08009KT CAVOK PROB40 1509/1516 FEW050CB=



ESSD (Borlänge)
(125 minuter sedan)
ESSD 150530Z 1506/1514 11005KT CAVOK=



EFMA (Mariehamn)
(129 minuter sedan)
EFMA 150526Z 1506/1515 11004KT CAVOK=



ESOW (Västerås)
(125 minuter sedan)
ESOW 150530Z 1506/1515 07006KT CAVOK PROB40 1509/1515 FEW050CB=





Kodnycklar till TAF och METAR






LHP

(Gryttjom är område se34e i Delområde 1)

Översikt

ÄNDRAD ÖVERSIKT FÖR OMRÅDE se3 UTFÄRDAD 150637

GÄLLANDE DEN 15 AUGUSTI 2022 MELLAN 04 OCH 12 UTC


Väderöversikt
En sydostlig luftström råder över södra Sverige.

Sikt under 5 kilometer eller molnbas under 1000 fot
04-06UTC: I hela området
06-08UTC: Område se34

Måttlig eller svår isbildning
Väntas inte förekomma under perioden
Måttlig eller svår turbulens
Väntas inte förekomma under perioden


Delområde 1

ÄNDRAD PROGNOS FÖR OMRÅDE se34 UTFÄRDAD 150637
GÄLLANDE DEN 15 AUGUSTI 2022 MELLAN 04 OCH 12 UTC


Måttlig eller svår turbulens
04-12UTC: I hela området: Väntas inte förekomma under perioden

Måttlig eller svår isbildning
04-12UTC: I hela området: Väntas inte förekomma under perioden

Sikt/Väder/Moln
04-06UTC: Område se34b,se34f: Sikt <1.5km i dis, lokalt >8km i höga dimbankar. Molnbas >2000ft, lokalt <500ft.

04-10UTC: Område se34a: Sikt <1.5km i dis, lokalt >8km i höga dimbankar. Molnbas >2000ft, lokalt <500ft.
Område se34e,se34c: Sikt <1.5km - >8km i dis, höga dimbankar. Molnbas <500ft - >2000ft.
Område se34d: Sikt >8km. Molnbas >2000ft.

06-10UTC: Område se34b,se34f: Sikt <1.5km - >8km i dis, höga dimbankar. Molnbas <500ft - >2000ft.

10-12UTC: Område se34b,se34a: Sikt <1.5km - >8km i dimma. Molnbas <500ft - >2000ft.
Område se34f,se34e,se34c: Sikt 5km - >8km i regnskurar, åska. Molnbas >2000ft.
Område se34d: Sikt >8km, lokalt 5km - 8km i regnskurar, åska. Molnbas >2000ft.


Molnöversida
04-06UTC: Område se34d: Ingen prognos
Område se34e: Molnöversida 1500ft.

04-08UTC: Område se34f,se34c: Molnöversida 1500ft.

04-10UTC: Område se34b,se34a: Molnöversida 1500ft.

06-12UTC: Område se34e,se34d: Molnöversida > FL125.

08-12UTC: Område se34f,se34c: Molnöversida > FL125.

10-12UTC: Område se34b,se34a: Molnöversida > FL125.


CB/TCU Moln
04-08UTC: Område se34f,se34e,se34d,se34c: Väntas inte förekomma under perioden

04-12UTC: Område se34b,se34a: Väntas inte förekomma under perioden

08-10UTC: Område se34f,se34e,se34d,se34c: tcu

10-12UTC: Område se34f,se34e,se34d,se34c: isol cb


Nollgradersisoterm
04-08UTC: I hela området: Noll grader FL110 - > FL125.
08-10UTC: I hela området: Noll grader FL115 - > FL125.
10-12UTC: I hela området: Noll grader FL120 - > FL125.

Vind vid marken
04-06UTC: Område se34c: Vrb/0-5 knop, byar upp till 12 knop.
Område se34a: O-SO/0-10 knop, byar upp till 13 knop.
Område se34e: O/0-5 knop.
Område se34f: O/1-5 knop.
Område se34d: Lugnt.
Område se34b: O/0-9 knop, byar upp till 12 knop.

06-08UTC: Område se34e: O/1-4 knop.
Område se34f: NO-O/1-4 knop.
Område se34c: O/0-4 knop, byar upp till 12 knop.
Område se34b: O/0-10 knop, byar upp till 12 knop.
Område se34d: NO-O/1-3 knop.
Område se34a: O/0-9 knop, byar upp till 12 knop.

08-10UTC: Område se34c: O/2-7 knop, byar upp till 14 knop.
Område se34d: O/3-6 knop, byar upp till 16 knop.
Område se34b: O-SO/1-12 knop, byar upp till 15 knop.
Område se34a: NO-O/1-9 knop, byar upp till 12 knop.
Område se34e: O/2-6 knop, byar upp till 14 knop.
Område se34f: O/3-7 knop, byar upp till 15 knop.

10-12UTC: Område se34f: SO/3-9 knop, byar upp till 20 knop.
Område se34d: O-SO/4-7 knop, byar upp till 17 knop.
Område se34b: O-SO/3-13 knop, byar upp till 20 knop.
Område se34a: O/3-12 knop, byar upp till 14 knop.
Område se34c: O-SO/3-8 knop, byar upp till 17 knop.
Område se34e: O-SO/2-8 knop, byar upp till 16 knop.


Genomsnittlig vind och temperatur för området

2000ft:
04-08UTC: 160/12kt +18.
08-10UTC: 150/12kt +19.
10-12UTC: 140/13kt +19.

FL050:
04-06UTC: 160/13kt +13.
06-08UTC: 170/14kt +12.
08-10UTC: 180/14kt +12.
10-12UTC: 180/15kt +12.

FL100:
04-06UTC: 160/17kt +2.
06-08UTC: 170/18kt +2.
08-10UTC: 180/18kt +2.
10-12UTC: 190/18kt +2.

Lägsta QNH
04-08UTC: I hela området: 1013 hPa
08-12UTC: I hela området: 1012 hPa

OBS! endast utbredd måttlig eller svår isbildning och turbulens prognostiseras i LLF.
Avsaknad av isbildning och turbulens i prognosen utesluter inte förekomst av lätt isbildning och turbulens.
För indikation på lätt isbildning, var vänlig kontrollera om prognosen för molntopp ligger högre än nollgradersisotermen.
Förekomst av TCU eller CB medför alltid en risk för måttlig eller svår isbildning och turbulens även om det inte framgår explicit av prognosen.








Spotting

Hur fungerar spotthjälpen och Vindkartan?

Markvind är ca 1-2 m/s.
Vind på 600 m ca 6 m/s.
Vind på 1500 m ca 7 m/s.
Vind på 3000 m ca 9 m/s.
SE-GEE flyger ca 36 m/s över marken på finalen.
Du driver ca 417 m bakåt i frifall. (556 m)
Lämplig spot är 4 sekunder eller 144 m efter gropen.
(8 s eller 288 m)
För små grupper eller ensamhoppare bör man vänta 4-6 sekunder mellan grupperna.
För större grupper bör man vänta 8-10 sekunder mellan grupperna.


Vindkartan

Senast uppdaterad 09:35




All data kommer från LFV.se